createdAt,value
2023-01-13T00:01:25.851Z,85.90
2023-01-13T00:03:53.235Z,86.00
2023-01-13T00:06:26.093Z,86.00
2023-01-13T00:08:53.767Z,86.30
2023-01-13T00:11:21.900Z,86.10
2023-01-13T00:13:48.891Z,86.10
2023-01-13T00:16:18.388Z,86.00
2023-01-13T00:18:46.053Z,86.10
2023-01-13T00:21:23.654Z,85.90
2023-01-13T00:23:52.628Z,86.10
2023-01-13T00:26:23.755Z,86.10
2023-01-13T00:28:50.814Z,86.20
2023-01-13T00:31:20.966Z,86.00
2023-01-13T00:33:51.916Z,85.50
2023-01-13T00:36:20.855Z,86.20
2023-01-13T00:38:48.680Z,86.30
2023-01-13T00:41:19.405Z,85.60
2023-01-13T00:43:46.892Z,86.30
2023-01-13T00:46:17.470Z,86.20
2023-01-13T00:48:45.194Z,86.30
2023-01-13T00:51:19.118Z,86.10
2023-01-13T00:53:51.329Z,86.30
2023-01-13T00:56:39.289Z,86.30
2023-01-13T00:59:10.935Z,85.90
2023-01-13T01:01:38.409Z,85.80
2023-01-13T01:04:05.798Z,85.90
2023-01-13T01:06:32.862Z,85.90
2023-01-13T01:08:59.693Z,86.00
2023-01-13T01:11:31.879Z,86.00
2023-01-13T01:14:02.197Z,86.00
2023-01-13T01:16:31.535Z,86.10
2023-01-13T01:18:59.703Z,86.10
2023-01-13T01:21:28.741Z,86.10
2023-01-13T01:23:56.064Z,86.10
2023-01-13T01:26:26.275Z,86.10
2023-01-13T01:28:53.646Z,86.20
2023-01-13T01:31:33.303Z,86.10
2023-01-13T01:34:01.688Z,86.20
2023-01-13T01:36:34.904Z,86.20
2023-01-13T01:39:01.763Z,86.70
2023-01-13T01:41:33.578Z,86.00
2023-01-13T01:44:08.371Z,86.00
2023-01-13T01:46:40.439Z,85.90
2023-01-13T01:49:26.814Z,86.00
2023-01-13T01:52:26.502Z,86.60
2023-01-13T01:55:06.645Z,85.90
2023-01-13T01:57:46.423Z,85.70
2023-01-13T02:00:14.210Z,85.70
2023-01-13T02:02:46.005Z,85.50
2023-01-13T02:05:13.698Z,85.40
2023-01-13T02:07:44.383Z,85.40
2023-01-13T02:10:16.731Z,84.80
2023-01-13T02:12:45.708Z,85.40
2023-01-13T02:15:17.836Z,85.30
2023-01-13T02:18:47.285Z,85.30
2023-01-13T02:21:41.991Z,85.30
2023-01-13T02:25:00.995Z,85.10
2023-01-13T02:27:55.541Z,85.00
2023-01-13T02:31:00.062Z,84.90
2023-01-13T02:34:10.288Z,84.80
2023-01-13T02:37:08.389Z,84.70
2023-01-13T02:39:51.772Z,84.60
2023-01-13T02:42:53.326Z,84.50
2023-01-13T02:45:51.196Z,84.50
2023-01-13T02:48:22.601Z,84.30
2023-01-13T02:51:02.290Z,84.30
2023-01-13T02:53:40.927Z,84.40
2023-01-13T02:56:10.245Z,84.30
2023-01-13T02:58:40.429Z,84.40
2023-01-13T03:01:07.968Z,84.40
2023-01-13T03:03:36.452Z,83.70
2023-01-13T03:06:36.842Z,84.40
2023-01-13T03:09:19.155Z,84.60
2023-01-13T03:12:07.688Z,84.50
2023-01-13T03:14:53.879Z,84.40
2023-01-13T03:17:49.524Z,84.30
2023-01-13T03:20:25.666Z,83.60
2023-01-13T03:23:15.352Z,84.10
2023-01-13T03:26:02.760Z,84.10
2023-01-13T03:28:41.262Z,84.10
2023-01-13T03:31:16.061Z,84.10
2023-01-13T03:33:56.667Z,83.50
2023-01-13T03:36:27.942Z,84.10
2023-01-13T03:39:07.612Z,84.10
2023-01-13T03:41:43.523Z,83.90
2023-01-13T03:44:22.399Z,83.90
2023-01-13T03:47:15.692Z,83.90
2023-01-13T03:49:55.716Z,83.80
2023-01-13T03:52:36.484Z,83.70
2023-01-13T03:55:34.373Z,83.60
2023-01-13T03:58:19.302Z,83.50
2023-01-13T04:01:30.783Z,83.60
2023-01-13T04:04:21.506Z,83.60
2023-01-13T04:07:11.878Z,83.50
2023-01-13T04:09:56.557Z,83.40
2023-01-13T04:13:00.652Z,83.40
2023-01-13T04:15:39.194Z,83.50
2023-01-13T04:18:16.173Z,83.50
2023-01-13T04:20:45.818Z,83.60
2023-01-13T04:23:13.590Z,83.60
2023-01-13T04:25:45.088Z,82.90
2023-01-13T04:28:12.981Z,83.50
2023-01-13T04:30:40.801Z,83.50
2023-01-13T04:33:07.741Z,83.40
2023-01-13T04:35:35.537Z,83.50
2023-01-13T04:38:10.835Z,83.40
2023-01-13T04:40:38.392Z,83.40
2023-01-13T04:43:05.379Z,83.40
2023-01-13T04:45:32.610Z,83.40
2023-01-13T04:47:59.596Z,83.50
2023-01-13T04:50:26.385Z,83.30
2023-01-13T04:52:54.808Z,83.30
2023-01-13T04:55:24.193Z,83.40
2023-01-13T04:57:51.696Z,83.40
2023-01-13T05:00:22.249Z,83.40
2023-01-13T05:02:52.235Z,83.40
2023-01-13T05:05:19.479Z,83.40
2023-01-13T05:07:46.525Z,83.50
2023-01-13T05:10:13.706Z,83.40
2023-01-13T05:12:59.792Z,83.50
2023-01-13T05:15:45.347Z,83.60
2023-01-13T05:18:13.034Z,84.30
2023-01-13T05:20:39.800Z,83.80
2023-01-13T05:23:25.512Z,83.80
2023-01-13T05:25:52.352Z,83.80
2023-01-13T05:28:19.172Z,83.80
2023-01-13T05:30:49.239Z,83.90
2023-01-13T05:33:18.911Z,84.00
2023-01-13T05:35:47.653Z,84.30
2023-01-13T05:38:15.511Z,84.20
2023-01-13T05:41:01.069Z,84.30
2023-01-13T05:43:28.133Z,84.50
2023-01-13T05:46:05.583Z,84.50
2023-01-13T05:48:36.354Z,84.40
2023-01-13T05:51:05.578Z,84.30
2023-01-13T05:53:33.155Z,84.30
2023-01-13T05:56:00.583Z,84.30
2023-01-13T05:58:28.263Z,84.40
2023-01-13T06:01:03.169Z,84.40
2023-01-13T06:03:30.320Z,84.50
2023-01-13T06:06:01.482Z,84.40
2023-01-13T06:08:29.077Z,84.40
2023-01-13T06:10:56.476Z,84.30
2023-01-13T06:13:25.338Z,84.40
2023-01-13T06:15:56.776Z,84.40
2023-01-13T06:18:23.938Z,84.30
2023-01-13T06:20:50.713Z,84.30
2023-01-13T06:23:17.497Z,83.60
2023-01-13T06:26:13.711Z,84.20
2023-01-13T06:28:40.723Z,84.10
2023-01-13T06:31:10.157Z,84.00
2023-01-13T06:33:42.806Z,83.30
2023-01-13T06:36:22.624Z,83.90
2023-01-13T06:38:55.707Z,83.70
2023-01-13T06:41:43.413Z,83.70
2023-01-13T06:44:10.429Z,83.80
2023-01-13T06:46:37.575Z,83.70
2023-01-13T06:49:04.371Z,83.90
2023-01-13T06:51:31.096Z,83.90
2023-01-13T06:53:57.851Z,83.80
2023-01-13T06:56:24.759Z,83.90
2023-01-13T06:58:51.725Z,83.90
2023-01-13T07:01:18.531Z,83.90
2023-01-13T07:03:45.451Z,83.90
2023-01-13T07:06:12.321Z,83.90
2023-01-13T07:08:39.095Z,83.90
2023-01-13T07:11:06.114Z,83.80
2023-01-13T07:13:53.834Z,83.80
2023-01-13T07:16:20.761Z,83.90
2023-01-13T07:18:47.560Z,83.90
2023-01-13T07:21:18.727Z,84.00
2023-01-13T07:23:46.528Z,84.40
2023-01-13T07:26:15.031Z,83.70
2023-01-13T07:28:42.627Z,83.50
2023-01-13T07:31:21.420Z,83.40
2023-01-13T07:33:48.370Z,83.10
2023-01-13T07:36:15.766Z,83.20
2023-01-13T07:38:44.433Z,83.10
2023-01-13T07:41:33.754Z,83.00
2023-01-13T07:44:02.750Z,82.70
2023-01-13T07:46:29.472Z,82.70
2023-01-13T07:48:56.262Z,83.20
2023-01-13T07:51:23.045Z,82.40
2023-01-13T07:53:49.972Z,82.40
2023-01-13T07:56:16.934Z,82.40
2023-01-13T07:58:44.896Z,82.40
2023-01-13T08:01:14.015Z,82.20
2023-01-13T08:03:41.304Z,81.90
2023-01-13T08:06:09.568Z,81.90
2023-01-13T08:08:36.828Z,81.60
2023-01-13T08:11:06.607Z,81.40
2023-01-13T08:13:33.606Z,81.40
2023-01-13T08:16:11.211Z,81.40
2023-01-13T08:18:38.588Z,81.00
2023-01-13T08:21:12.894Z,81.00
2023-01-13T08:23:44.346Z,80.60
2023-01-13T08:26:16.386Z,80.60
2023-01-13T08:28:43.797Z,80.40
2023-01-13T08:31:15.751Z,80.40
2023-01-13T08:33:42.688Z,80.10
2023-01-13T08:36:12.277Z,80.20
2023-01-13T08:38:40.780Z,80.10
2023-01-13T08:41:14.371Z,80.20
2023-01-13T08:43:41.816Z,80.00
2023-01-13T08:46:08.683Z,80.10
2023-01-13T08:48:35.797Z,80.20
2023-01-13T08:51:05.928Z,80.20
2023-01-13T08:53:32.702Z,80.00
2023-01-13T08:55:59.525Z,80.10
2023-01-13T08:58:26.340Z,80.10
2023-01-13T09:00:53.165Z,80.10
2023-01-13T09:03:19.990Z,80.10
2023-01-13T09:05:46.780Z,80.20
2023-01-13T09:08:13.865Z,80.20
2023-01-13T09:10:40.713Z,80.20
2023-01-13T09:13:13.090Z,80.90
2023-01-13T09:15:42.644Z,80.20
2023-01-13T09:18:10.173Z,80.10
2023-01-13T09:20:36.969Z,80.00
2023-01-13T09:23:04.830Z,79.80
2023-01-13T09:25:32.085Z,79.80
2023-01-13T09:27:58.984Z,80.10
2023-01-13T09:30:25.804Z,80.00
2023-01-13T09:33:12.550Z,80.20
2023-01-13T09:35:39.273Z,80.10
2023-01-13T09:38:06.872Z,80.10
2023-01-13T09:40:33.934Z,80.20
2023-01-13T09:43:50.229Z,80.10
2023-01-13T09:46:44.771Z,79.80
2023-01-13T09:49:20.667Z,79.90
2023-01-13T09:52:20.906Z,79.70
2023-01-13T09:55:30.524Z,79.50
2023-01-13T10:00:34.890Z,79.00
2023-01-13T10:03:22.451Z,79.40
2023-01-13T10:06:16.860Z,78.90
2023-01-13T10:08:47.283Z,79.00
2023-01-13T10:11:43.563Z,79.30
2023-01-13T10:14:24.465Z,79.10
2023-01-13T10:17:13.411Z,79.10
2023-01-13T10:20:02.896Z,78.70
2023-01-13T10:23:07.017Z,78.80
2023-01-13T10:25:52.386Z,78.50
2023-01-13T10:28:19.620Z,78.50
2023-01-13T10:30:47.786Z,78.70
2023-01-13T10:33:26.271Z,78.60
2023-01-13T10:36:02.579Z,78.70
2023-01-13T10:38:43.151Z,78.50
2023-01-13T10:41:15.607Z,78.60
2023-01-13T10:43:51.483Z,78.50
2023-01-13T10:46:20.052Z,78.60
2023-01-13T10:49:00.312Z,79.00
2023-01-13T10:51:38.783Z,78.70
2023-01-13T10:54:11.741Z,78.60
2023-01-13T10:56:44.866Z,78.40
2023-01-13T10:59:26.737Z,78.70
2023-01-13T11:02:25.193Z,78.30
2023-01-13T11:04:55.873Z,78.00
2023-01-13T11:07:39.011Z,77.90
2023-01-13T11:10:27.500Z,77.70
2023-01-13T11:13:03.704Z,77.20
2023-01-13T11:16:18.795Z,77.50
2023-01-13T11:19:12.041Z,76.60
2023-01-13T11:22:25.255Z,76.60
2023-01-13T11:25:01.823Z,76.60
2023-01-13T11:28:14.180Z,77.20
2023-01-13T11:31:08.469Z,75.60
2023-01-13T11:33:38.225Z,75.60
2023-01-13T11:36:22.855Z,75.30
2023-01-13T11:38:57.358Z,75.60
2023-01-13T11:42:12.453Z,75.20
2023-01-13T11:44:45.081Z,74.70
2023-01-13T11:47:13.843Z,75.10
2023-01-13T11:49:40.922Z,74.50
2023-01-13T11:52:28.426Z,75.00
2023-01-13T11:55:22.998Z,74.20
2023-01-13T11:58:41.931Z,74.10
2023-01-13T12:02:00.469Z,74.20
2023-01-13T12:04:52.697Z,74.30
2023-01-13T12:07:46.076Z,74.80
2023-01-13T12:10:39.860Z,73.80
2023-01-13T12:13:29.057Z,74.00
2023-01-13T12:16:30.355Z,73.70
2023-01-13T12:19:25.080Z,72.90
2023-01-13T12:22:10.847Z,73.30
2023-01-13T12:25:04.251Z,73.60
2023-01-13T12:27:59.316Z,73.30
2023-01-13T12:30:42.748Z,71.40
2023-01-13T12:33:54.837Z,72.70
2023-01-13T12:36:50.960Z,71.80
2023-01-13T12:39:51.560Z,72.60
2023-01-13T12:42:51.420Z,71.30
2023-01-13T12:45:28.775Z,70.20
2023-01-13T12:47:58.704Z,70.90
2023-01-13T12:50:25.368Z,71.50
2023-01-13T12:52:54.618Z,70.50
2023-01-13T12:55:37.057Z,70.90
2023-01-13T12:58:06.907Z,70.10
2023-01-13T13:00:44.610Z,70.10
2023-01-13T13:05:48.840Z,69.50
2023-01-13T13:08:59.780Z,69.20
2023-01-13T13:11:57.967Z,68.90
2023-01-13T13:14:40.140Z,68.80
2023-01-13T13:17:28.578Z,68.70
2023-01-13T13:19:57.631Z,68.60
2023-01-13T13:22:27.289Z,69.40
2023-01-13T13:24:57.611Z,69.30
2023-01-13T13:27:56.995Z,69.20
2023-01-13T13:30:35.535Z,68.40
2023-01-13T13:33:34.888Z,68.60
2023-01-13T13:36:50.261Z,68.80
2023-01-13T13:39:47.296Z,68.30
2023-01-13T13:42:42.790Z,68.20
2023-01-13T13:45:40.295Z,68.60
2023-01-13T13:48:30.921Z,67.90
2023-01-13T13:51:02.582Z,67.40
2023-01-13T13:53:42.046Z,68.10
2023-01-13T13:56:27.210Z,67.50
2023-01-13T13:58:54.808Z,66.70
2023-01-13T14:01:43.727Z,67.30
2023-01-13T14:04:22.191Z,66.50
2023-01-13T14:06:56.698Z,67.30
2023-01-13T14:09:25.975Z,67.40
2023-01-13T14:12:06.723Z,67.40
2023-01-13T14:14:33.560Z,67.10
2023-01-13T14:17:00.524Z,67.60
2023-01-13T14:19:36.331Z,67.70
2023-01-13T14:22:05.180Z,67.00
2023-01-13T14:24:32.771Z,67.30
2023-01-13T14:27:16.251Z,67.10
2023-01-13T14:29:43.630Z,66.90
2023-01-13T14:32:17.706Z,67.50
2023-01-13T14:34:45.066Z,66.80
2023-01-13T14:37:27.810Z,67.20
2023-01-13T14:39:55.344Z,66.50
2023-01-13T14:42:22.219Z,67.00
2023-01-13T14:44:51.513Z,67.10
2023-01-13T14:47:33.631Z,66.80
2023-01-13T14:50:21.935Z,66.20
2023-01-13T14:52:55.623Z,65.90
2023-01-13T14:55:38.468Z,66.30
2023-01-13T14:58:25.114Z,66.30
2023-01-13T15:01:26.193Z,65.70
2023-01-13T15:03:53.020Z,65.90
2023-01-13T15:06:26.048Z,65.80
2023-01-13T15:08:53.027Z,65.60
2023-01-13T15:11:27.983Z,65.70
2023-01-13T15:14:03.672Z,65.60
2023-01-13T15:16:33.858Z,65.40
2023-01-13T15:19:01.633Z,65.60
2023-01-13T15:21:28.475Z,65.50
2023-01-13T15:23:55.260Z,65.30
2023-01-13T15:26:25.139Z,65.40
2023-01-13T15:28:55.552Z,65.20
2023-01-13T15:31:23.627Z,64.80
2023-01-13T15:33:50.812Z,65.20
2023-01-13T15:36:31.328Z,65.20
2023-01-13T15:39:00.989Z,64.70
2023-01-13T15:41:47.120Z,64.90
2023-01-13T15:44:34.295Z,64.90
2023-01-13T15:47:06.503Z,65.00
2023-01-13T15:49:46.403Z,64.80
2023-01-13T15:52:25.780Z,64.80
2023-01-13T15:54:54.275Z,64.30
2023-01-13T15:57:34.616Z,64.90
2023-01-13T16:00:08.083Z,64.80
2023-01-13T16:02:34.980Z,64.80
2023-01-13T16:05:01.885Z,64.70
2023-01-13T16:07:28.676Z,64.80
2023-01-13T16:09:55.753Z,64.90
2023-01-13T16:12:22.532Z,64.80
2023-01-13T16:14:49.280Z,64.70
2023-01-13T16:17:20.192Z,64.80
2023-01-13T16:19:47.282Z,64.80
2023-01-13T16:22:16.316Z,65.10
2023-01-13T16:24:43.288Z,65.00
2023-01-13T16:27:16.696Z,65.20
2023-01-13T16:29:45.859Z,64.80
2023-01-13T16:32:13.343Z,65.00
2023-01-13T16:34:40.615Z,65.00
2023-01-13T16:37:27.717Z,65.00
2023-01-13T16:39:55.155Z,64.20
2023-01-13T16:42:22.136Z,65.00
2023-01-13T16:44:50.606Z,64.60
2023-01-13T16:47:18.748Z,64.80
2023-01-13T16:49:46.060Z,65.00
2023-01-13T16:52:12.832Z,64.10
2023-01-13T16:54:39.639Z,64.50
2023-01-13T16:57:07.733Z,64.70
2023-01-13T16:59:34.531Z,64.60
2023-01-13T17:02:02.084Z,64.70
2023-01-13T17:04:29.073Z,64.90
2023-01-13T17:07:05.973Z,65.10
2023-01-13T17:09:32.755Z,65.10
2023-01-13T17:11:59.926Z,65.20
2023-01-13T17:14:26.761Z,65.40
2023-01-13T17:16:58.389Z,65.50
2023-01-13T17:19:25.699Z,65.60
2023-01-13T17:21:52.670Z,65.40
2023-01-13T17:24:20.032Z,65.60
2023-01-13T17:26:49.971Z,65.60
2023-01-13T17:29:23.498Z,65.70
2023-01-13T17:31:51.372Z,65.80
2023-01-13T17:34:19.747Z,65.90
2023-01-13T17:36:46.986Z,66.00
2023-01-13T17:39:21.520Z,66.00
2023-01-13T17:41:48.374Z,66.30
2023-01-13T17:44:20.847Z,66.30
2023-01-13T17:46:48.761Z,66.50
2023-01-13T17:49:19.092Z,66.50
2023-01-13T17:51:50.971Z,66.70
2023-01-13T17:54:18.904Z,66.90
2023-01-13T17:56:45.654Z,67.00
2023-01-13T17:59:14.695Z,67.10
2023-01-13T18:01:42.125Z,67.30
2023-01-13T18:04:27.533Z,67.30
2023-01-13T18:06:56.646Z,67.40
2023-01-13T18:09:23.605Z,67.50
2023-01-13T18:11:50.563Z,67.40
2023-01-13T18:14:17.578Z,67.40
2023-01-13T18:16:44.595Z,67.50
2023-01-13T18:19:30.037Z,67.50
2023-01-13T18:22:15.466Z,67.60
2023-01-13T18:25:00.977Z,67.70
2023-01-13T18:27:33.784Z,67.70
2023-01-13T18:30:02.825Z,67.10
2023-01-13T18:32:33.329Z,67.60
2023-01-13T18:35:06.416Z,67.50
2023-01-13T18:37:41.894Z,67.50
2023-01-13T18:40:12.547Z,66.90
2023-01-13T18:42:51.664Z,67.50
2023-01-13T18:45:28.862Z,67.40
2023-01-13T18:48:00.130Z,67.20
2023-01-13T18:50:28.379Z,67.40
2023-01-13T18:52:55.666Z,67.30
2023-01-13T18:55:22.744Z,67.30
2023-01-13T18:57:50.753Z,67.40
2023-01-13T19:00:21.618Z,66.70
2023-01-13T19:05:34.212Z,67.50
2023-01-13T19:08:00.999Z,67.30
2023-01-13T19:10:31.703Z,67.60
2023-01-13T19:12:58.560Z,67.60
2023-01-13T19:15:26.352Z,67.60
2023-01-13T19:17:53.080Z,67.60
2023-01-13T19:20:20.157Z,67.70
2023-01-13T19:22:53.825Z,67.60
2023-01-13T19:25:20.769Z,67.60
2023-01-13T19:27:47.497Z,67.60
2023-01-13T19:30:14.619Z,67.70
2023-01-13T19:32:41.380Z,67.50
2023-01-13T19:35:08.716Z,67.50
2023-01-13T19:37:36.865Z,67.50
2023-01-13T19:40:09.146Z,67.40
2023-01-13T19:42:54.729Z,67.30
2023-01-13T19:45:27.378Z,67.20
2023-01-13T19:47:55.894Z,67.20
2023-01-13T19:50:23.245Z,67.10
2023-01-13T19:52:50.048Z,66.90
2023-01-13T19:55:16.845Z,66.80
2023-01-13T19:57:43.579Z,66.60
2023-01-13T20:00:12.216Z,66.60
2023-01-13T20:02:44.704Z,66.60
2023-01-13T20:05:12.753Z,66.00
2023-01-13T20:07:39.639Z,66.70
2023-01-13T20:10:07.313Z,66.60
2023-01-13T20:12:34.074Z,66.60
2023-01-13T20:15:00.798Z,66.30
2023-01-13T20:17:27.559Z,66.50
2023-01-13T20:19:54.576Z,66.50
2023-01-13T20:22:21.330Z,66.50
2023-01-13T20:24:51.987Z,66.60
2023-01-13T20:27:19.110Z,66.50
2023-01-13T20:29:45.865Z,67.10
2023-01-13T20:32:12.644Z,65.90
2023-01-13T20:34:39.391Z,66.60
2023-01-13T20:37:06.194Z,66.60
2023-01-13T20:39:33.932Z,66.50
2023-01-13T20:42:19.214Z,66.60
2023-01-13T20:44:46.749Z,66.50
2023-01-13T20:47:14.484Z,66.50
2023-01-13T20:49:41.620Z,66.50
2023-01-13T20:52:10.964Z,66.50
2023-01-13T20:54:40.005Z,66.50
2023-01-13T20:57:09.856Z,66.60
2023-01-13T20:59:38.849Z,66.40
2023-01-13T21:02:11.522Z,66.50
2023-01-13T21:04:38.579Z,66.50
2023-01-13T21:07:06.236Z,66.40
2023-01-13T21:09:33.130Z,66.50
2023-01-13T21:12:18.706Z,66.40
2023-01-13T21:15:04.033Z,66.60
2023-01-13T21:17:49.373Z,66.50
2023-01-13T21:20:16.456Z,66.20
2023-01-13T21:22:48.442Z,66.40
2023-01-13T21:25:17.507Z,66.00
2023-01-13T21:27:44.426Z,66.30
2023-01-13T21:30:14.828Z,66.00
2023-01-13T21:32:43.422Z,66.10
2023-01-13T21:35:11.704Z,66.00
2023-01-13T21:37:40.489Z,66.00
2023-01-13T21:40:10.286Z,65.90
2023-01-13T21:42:55.572Z,65.90
2023-01-13T21:45:41.460Z,65.40
2023-01-13T21:48:08.419Z,65.90
2023-01-13T21:50:37.898Z,66.00
2023-01-13T21:53:05.361Z,66.00
2023-01-13T21:55:32.779Z,66.10
2023-01-13T21:58:12.820Z,66.10
2023-01-13T22:00:44.393Z,65.90
2023-01-13T22:03:14.262Z,66.10
2023-01-13T22:05:41.434Z,66.00
2023-01-13T22:08:08.552Z,66.20
2023-01-13T22:10:35.434Z,66.20
2023-01-13T22:13:23.285Z,66.30
2023-01-13T22:15:50.016Z,66.10
2023-01-13T22:18:18.278Z,66.10
2023-01-13T22:20:45.656Z,66.20
2023-01-13T22:23:12.512Z,66.30
2023-01-13T22:25:39.388Z,66.30
2023-01-13T22:28:08.561Z,66.30
2023-01-13T22:30:35.519Z,66.50
2023-01-13T22:33:02.259Z,66.50
2023-01-13T22:35:29.004Z,66.40
2023-01-13T22:37:55.814Z,66.20
2023-01-13T22:40:22.592Z,65.70
2023-01-13T22:42:49.354Z,66.30
2023-01-13T22:45:16.316Z,66.30
2023-01-13T22:47:43.136Z,66.30
2023-01-13T22:50:12.523Z,65.70
2023-01-13T22:52:39.781Z,66.30
2023-01-13T22:55:07.325Z,66.40
2023-01-13T22:57:36.324Z,66.30
2023-01-13T23:00:14.992Z,66.50
2023-01-13T23:02:41.863Z,66.70
2023-01-13T23:05:08.918Z,66.70
2023-01-13T23:07:36.129Z,66.70
2023-01-13T23:10:04.204Z,66.70
2023-01-13T23:12:30.980Z,66.90
2023-01-13T23:14:57.767Z,66.80
2023-01-13T23:17:24.492Z,66.80
2023-01-13T23:19:51.218Z,66.70
2023-01-13T23:22:17.996Z,66.80
2023-01-13T23:24:45.471Z,66.80
2023-01-13T23:27:12.235Z,66.90
2023-01-13T23:29:39.020Z,66.90
2023-01-13T23:32:05.972Z,66.30
2023-01-13T23:34:32.725Z,67.30
2023-01-13T23:36:59.494Z,67.10
2023-01-13T23:39:26.330Z,67.20
2023-01-13T23:41:53.058Z,67.10
2023-01-13T23:44:19.835Z,67.40
2023-01-13T23:46:46.717Z,67.40
2023-01-13T23:49:13.445Z,67.50
2023-01-13T23:51:40.292Z,67.60
2023-01-13T23:54:07.079Z,67.60
2023-01-13T23:56:34.923Z,67.60
2023-01-13T23:59:01.724Z,67.70
